TimeEEST,TemperatureF,Dew PointF,Humidity,Sea Level PressureIn,VisibilityMPH,Wind Direction,Wind SpeedMPH,Gust SpeedMPH,PrecipitationIn,Events,Conditions,WindDirDegrees,DateUTC
12:50 AM,66.2,50.0,56,30.01,-9999.0,North,5.8,-,N/A,,Clear,350,2012-09-23 21:50:00
1:50 AM,64.4,50.0,59,30.01,-9999.0,Calm,Calm,-,N/A,,Clear,0,2012-09-23 22:50:00
2:50 AM,64.4,50.0,59,30.01,-9999.0,NNW,4.6,-,N/A,,Clear,340,2012-09-23 23:50:00
3:50 AM,62.6,50.0,63,30.01,-9999.0,Calm,Calm,-,N/A,,Clear,0,2012-09-24 00:50:00
4:50 AM,62.6,48.2,59,29.98,-9999.0,Calm,Calm,-,N/A,,Clear,0,2012-09-24 01:50:00
5:50 AM,60.8,48.2,63,29.98,-9999.0,North,4.6,-,N/A,,Clear,350,2012-09-24 02:50:00
6:20 AM,60.8,48.2,63,29.98,-9999.0,North,4.6,-,N/A,,Clear,350,2012-09-24 03:20:00
6:50 AM,60.8,48.2,63,29.98,-9999.0,Calm,Calm,-,N/A,,Clear,0,2012-09-24 03:50:00
7:20 AM,60.8,48.2,63,29.98,-9999.0,NNW,4.6,-,N/A,,Clear,340,2012-09-24 04:20:00
7:50 AM,60.8,48.2,63,29.98,-9999.0,North,4.6,-,N/A,,Clear,350,2012-09-24 04:50:00
8:20 AM,66.2,50.0,56,29.98,-9999.0,Calm,Calm,-,N/A,,Clear,0,2012-09-24 05:20:00
8:50 AM,69.8,48.2,46,29.98,-9999.0,Variable,3.5,-,N/A,,Clear,0,2012-09-24 05:50:00
9:20 AM,73.4,46.4,38,29.98,-9999.0,Calm,Calm,-,N/A,,Clear,0,2012-09-24 06:20:00
9:50 AM,77.0,46.4,34,29.98,-9999.0,Calm,Calm,-,N/A,,Clear,0,2012-09-24 06:50:00
10:20 AM,78.8,46.4,32,29.98,-9999.0,Calm,Calm,-,N/A,,Clear,0,2012-09-24 07:20:00
10:50 AM,80.6,46.4,30,29.98,-9999.0,Calm,Calm,-,N/A,,Clear,0,2012-09-24 07:50:00
11:20 AM,80.6,48.2,32,29.98,-9999.0,Variable,3.5,-,N/A,,Clear,0,2012-09-24 08:20:00
11:50 AM,80.6,46.4,30,29.98,-9999.0,SW,4.6,-,N/A,,Clear,220,2012-09-24 08:50:00
12:20 PM,82.4,46.4,28,29.98,-9999.0,SW,6.9,-,N/A,,Clear,220,2012-09-24 09:20:00
12:50 PM,82.4,48.2,30,29.98,-9999.0,SW,5.8,-,N/A,,Clear,220,2012-09-24 09:50:00
1:20 PM,84.2,50.0,30,29.98,-9999.0,SSW,5.8,-,N/A,,Clear,210,2012-09-24 10:20:00
1:50 PM,84.2,50.0,30,29.95,-9999.0,South,5.8,-,N/A,,Clear,190,2012-09-24 10:50:00
2:20 PM,84.2,55.4,37,29.95,-9999.0,SSW,8.1,-,N/A,,Clear,200,2012-09-24 11:20:00
2:50 PM,84.2,50.0,30,29.92,-9999.0,SSW,8.1,-,N/A,,Clear,200,2012-09-24 11:50:00
3:20 PM,86.0,50.0,29,29.92,-9999.0,SSW,8.1,-,N/A,,Clear,210,2012-09-24 12:20:00
3:50 PM,86.0,44.6,23,29.92,-9999.0,SSW,6.9,-,N/A,,Clear,210,2012-09-24 12:50:00
4:20 PM,86.0,44.6,23,29.92,-9999.0,SSW,8.1,-,N/A,,Clear,200,2012-09-24 13:20:00
4:50 PM,84.2,55.4,37,29.89,-9999.0,South,6.9,-,N/A,,Clear,190,2012-09-24 13:50:00
5:20 PM,84.2,55.4,37,29.89,-9999.0,South,6.9,-,N/A,,Clear,190,2012-09-24 14:20:00
5:50 PM,82.4,55.4,39,29.89,-9999.0,South,8.1,-,N/A,,Clear,190,2012-09-24 14:50:00
6:20 PM,80.6,55.4,42,29.89,-9999.0,South,5.8,-,N/A,,Clear,180,2012-09-24 15:20:00
6:50 PM,80.6,57.2,45,29.89,-9999.0,SSW,5.8,-,N/A,,Clear,200,2012-09-24 15:50:00
7:20 PM,77.0,59.0,54,29.89,-9999.0,Variable,3.5,-,N/A,,Clear,0,2012-09-24 16:20:00
7:50 PM,77.0,59.0,54,29.89,-9999.0,Variable,3.5,-,N/A,,Clear,0,2012-09-24 16:50:00
8:20 PM,75.2,59.0,57,29.89,-9999.0,SSW,4.6,-,N/A,,Clear,200,2012-09-24 17:20:00
8:50 PM,77.0,59.0,54,29.89,-9999.0,SSW,4.6,-,N/A,,Clear,200,2012-09-24 17:50:00
9:20 PM,73.4,59.0,61,29.86,-9999.0,Calm,Calm,-,N/A,,Clear,0,2012-09-24 18:20:00
9:50 PM,71.6,57.2,60,29.89,-9999.0,Calm,Calm,-,N/A,,Clear,0,2012-09-24 18:50:00
10:50 PM,69.8,55.4,60,29.89,-9999.0,NNW,4.6,-,N/A,,Clear,340,2012-09-24 19:50:00
11:20 PM,69.8,55.4,60,29.89,-9999.0,North,4.6,-,N/A,,Clear,350,2012-09-24 20:20:00
11:50 PM,68.0,55.4,64,29.89,-9999.0,Calm,Calm,-,N/A,,Clear,0,2012-09-24 20:50:00